Time;durP1;ratioP1;P1;durP2;ratioP2;P2;SDS_P1;SDS_P2;PMS_P1;PMS_P2;Temp;Humidity;BMP_temperature;BMP_pressure;BME280_temperature;BME280_humidity;BME280_pressure;Samples;Min_cycle;Max_cycle;Signal;HPM_P1;HPM_P2
2019/07/16 00:01:55;;;;;;;7.2;6;;;;;;;15.32;81.22266;939.0261;;;;
2019/07/16 00:04:22;;;;;;;8.1;6;;;;;;;15.27;81.58398;939.0313;;;;
2019/07/16 00:06:45;;;;;;;6.7;6.1;;;;;;;15.31;81.47363;939.0359;;;;
2019/07/16 00:09:15;;;;;;;8.5;6.8;;;;;;;15.1;82.08301;939.0114;;;;
2019/07/16 00:11:46;;;;;;;8.6;6;;;;;;;15.33;81.13281;939.0076;;;;
2019/07/16 00:14:05;;;;;;;7.5;6.3;;;;;;;15.35;80.97363;939.0307;;;;
2019/07/16 00:16:31;;;;;;;7.1;6.2;;;;;;;15.25;80.9668;938.9866;;;;
2019/07/16 00:18:55;;;;;;;6.7;6.1;;;;;;;15.34;80.33887;938.9545;;;;
2019/07/16 00:21:18;;;;;;;8.8;6.7;;;;;;;15.27;80.60254;938.9326;;;;
2019/07/16 00:23:46;;;;;;;8.6;6.8;;;;;;;15.13;80.69141;938.9269;;;;
2019/07/16 00:26:10;;;;;;;10;6.9;;;;;;;15.15;80.02539;938.9677;;;;
2019/07/16 00:28:36;;;;;;;7.9;6.1;;;;;;;15.15;80.83301;938.9677;;;;
2019/07/16 00:31:03;;;;;;;6.7;6;;;;;;;15.09;81.06445;938.9192;;;;
2019/07/16 00:33:26;;;;;;;6.7;6;;;;;;;15.06;81.43945;938.9306;;;;
2019/07/16 00:35:51;;;;;;;8;6.2;;;;;;;15.05;81.57617;938.9147;;;;
2019/07/16 00:38:24;;;;;;;7.9;5.8;;;;;;;15.15;81.05273;938.9548;;;;
2019/07/16 00:44:29;;;;;;;8.2;6.4;;;;;;;14.96;80.98438;939.0095;;;;
2019/07/16 00:46:55;;;;;;;8.8;6.5;;;;;;;14.92;81.04395;939.0058;;;;
2019/07/16 00:49:25;;;;;;;10.3;6.5;;;;;;;14.87;81.0332;939.063;;;;
2019/07/16 00:51:46;;;;;;;7.2;6.5;;;;;;;14.74;81.39063;939.0555;;;;
2019/07/16 00:54:14;;;;;;;7.6;6.8;;;;;;;14.71;81.52539;939.1398;;;;
2019/07/16 00:56:35;;;;;;;7.5;6.7;;;;;;;14.4;83.98926;939.0577;;;;
2019/07/16 00:59:00;;;;;;;7.9;6.7;;;;;;;14.67;82.46387;939.0542;;;;
2019/07/16 01:01:27;;;;;;;7.3;6.7;;;;;;;14.63;82.70898;939.0336;;;;
2019/07/16 01:03:53;;;;;;;7.6;6.9;;;;;;;14.75;82.08594;939.1227;;;;
2019/07/16 01:06:14;;;;;;;7.7;6.8;;;;;;;14.83;82.06641;939.0801;;;;
2019/07/16 01:08:42;;;;;;;7;6.3;;;;;;;14.78;82.26367;938.9832;;;;
2019/07/16 01:11:05;;;;;;;7;6.3;;;;;;;14.79;82.41504;939.0504;;;;
2019/07/16 01:13:36;;;;;;;7.9;6.6;;;;;;;14.81;82.36328;939.0903;;;;
2019/07/16 01:15:58;;;;;;;8;7.3;;;;;;;14.9;82.08008;939.0974;;;;
2019/07/16 01:18:21;;;;;;;7.8;6.5;;;;;;;14.97;81.3418;939.1074;;;;
2019/07/16 01:20:46;;;;;;;7.4;6.7;;;;;;;14.91;81.48242;939.0244;;;;
2019/07/16 01:23:14;;;;;;;8.4;6.8;;;;;;;14.94;81.1875;939.0338;;;;
2019/07/16 01:25:36;;;;;;;7.1;6.4;;;;;;;14.87;81.86523;939.0542;;;;
2019/07/16 01:28:01;;;;;;;8.4;6.6;;;;;;;14.99;81.47363;938.9548;;;;
2019/07/16 01:30:25;;;;;;;8.9;6.6;;;;;;;15;81.61426;939.1119;;;;
2019/07/16 01:32:51;;;;;;;9.5;6.5;;;;;;;14.86;82.04883;939.0895;;;;
2019/07/16 01:35:17;;;;;;;8.5;6.5;;;;;;;14.9;82.25293;939.0804;;;;
2019/07/16 01:37:41;;;;;;;7;6.3;;;;;;;14.95;81.68457;939.0706;;;;
2019/07/16 01:40:08;;;;;;;7.9;7.1;;;;;;;14.89;81.89258;939.0734;;;;
2019/07/16 01:42:41;;;;;;;6.8;6.2;;;;;;;14.44;84.08887;939.0927;;;;
2019/07/16 01:44:59;;;;;;;7.7;6.9;;;;;;;14.7;83.47168;939.0597;;;;
2019/07/16 01:47:27;;;;;;;7.1;6.4;;;;;;;14.78;82.71387;939.0128;;;;
2019/07/16 01:49:56;;;;;;;7.6;6.8;;;;;;;14.79;82.68066;939.0928;;;;
2019/07/16 01:52:17;;;;;;;7.4;6.6;;;;;;;14.84;82.40234;939.0449;;;;
2019/07/16 01:54:42;;;;;;;7.3;6.6;;;;;;;14.95;81.79883;939.0714;;;;
2019/07/16 01:57:07;;;;;;;7.3;6.6;;;;;;;14.9;81.46875;939.0292;;;;
2019/07/16 01:59:36;;;;;;;8.6;7.3;;;;;;;14.75;81.93555;939.0112;;;;
2019/07/16 02:02:02;;;;;;;8.4;7.6;;;;;;;14.71;81.89453;939.0115;;;;
2019/07/16 02:04:37;;;;;;;7.9;7.1;;;;;;;14.82;81.5918;939.0593;;;;
2019/07/16 02:06:58;;;;;;;7.3;6.6;;;;;;;14.71;82.21777;939.0284;;;;
2019/07/16 02:09:20;;;;;;;7;6.3;;;;;;;14.55;83.00488;939.0761;;;;
2019/07/16 02:11:51;;;;;;;7.4;6.6;;;;;;;14.66;81.45801;939.116;;;;
2019/07/16 02:14:16;;;;;;;8.6;7.2;;;;;;;14.73;81.00977;939.0908;;;;
2019/07/16 02:16:47;;;;;;;8.4;7.6;;;;;;;14.57;82.27246;939.1289;;;;
2019/07/16 02:19:12;;;;;;;7.6;6.9;;;;;;;14.45;82.95117;939.1206;;;;
2019/07/16 02:21:38;;;;;;;7.4;6.8;;;;;;;14.36;83.22266;939.1556;;;;
2019/07/16 02:24:03;;;;;;;7.7;7;;;;;;;14.49;82.54395;939.1766;;;;
2019/07/16 02:26:31;;;;;;;7.9;7.2;;;;;;;14.64;81.71973;939.2074;;;;
2019/07/16 02:28:54;;;;;;;8.2;7.4;;;;;;;14.71;81.37598;939.2255;;;;
2019/07/16 02:31:26;;;;;;;8.2;7;;;;;;;14.51;82.66211;939.2598;;;;
2019/07/16 02:33:49;;;;;;;8.5;6.8;;;;;;;14.61;81.70117;939.2578;;;;
2019/07/16 02:36:19;;;;;;;8.7;7.2;;;;;;;14.59;81.74414;939.2723;;;;
2019/07/16 02:38:45;;;;;;;8.5;7.5;;;;;;;14.7;81.21094;939.1839;;;;
2019/07/16 02:41:12;;;;;;;9.9;7.3;;;;;;;14.64;81.71973;939.1986;;;;
2019/07/16 02:43:35;;;;;;;8;7.3;;;;;;;14.57;81.94824;939.2363;;;;
2019/07/16 02:46:00;;;;;;;7.7;7.1;;;;;;;14.7;81.06152;939.2095;;;;
2019/07/16 02:48:26;;;;;;;7.8;7.1;;;;;;;14.58;80.79688;939.2475;;;;
2019/07/16 02:50:51;;;;;;;9.1;8;;;;;;;14.47;81.4209;939.2648;;;;
2019/07/16 02:53:18;;;;;;;9.1;8.2;;;;;;;14.38;81.98145;939.2525;;;;
2019/07/16 02:55:45;;;;;;;8.7;7.8;;;;;;;14.49;81.44922;939.1894;;;;
2019/07/16 02:58:06;;;;;;;8.5;7.3;;;;;;;14.36;81.39063;939.2838;;;;
2019/07/16 03:00:31;;;;;;;9.4;7.5;;;;;;;14.35;81.25098;939.1869;;;;
2019/07/16 03:03:03;;;;;;;9.4;8.5;;;;;;;14.34;81.37598;939.1749;;;;
2019/07/16 03:05:25;;;;;;;10.1;8.2;;;;;;;14.31;81.65723;939.1959;;;;
2019/07/16 03:07:47;;;;;;;7.9;7.1;;;;;;;14.24;82.23047;939.2161;;;;
2019/07/16 03:16:39;;;;;;;8.4;7.6;;;;;;;14.03;82.59277;939.2133;;;;
2019/07/16 03:19:08;;;;;;;11.5;8.4;;;;;;;14.04;81.94141;939.2244;;;;
2019/07/16 03:21:34;;;;;;;9.9;8.9;;;;;;;14;81.81836;939.1937;;;;
2019/07/16 03:24:03;;;;;;;9.7;8.7;;;;;;;14.02;81.62598;939.1588;;;;
2019/07/16 03:26:29;;;;;;;8.6;7.8;;;;;;;13.96;81.43164;939.1642;;;;
2019/07/16 03:28:53;;;;;;;9.3;8.4;;;;;;;13.85;81.9043;939.2148;;;;
2019/07/16 03:31:22;;;;;;;10;8.5;;;;;;;13.9;81.22266;939.218;;;;
2019/07/16 03:33:47;;;;;;;9.9;8.9;;;;;;;13.84;82.04102;939.1605;;;;
2019/07/16 03:36:11;;;;;;;9.1;8.2;;;;;;;13.95;81.39355;939.1786;;;;
2019/07/16 03:38:37;;;;;;;9.6;8.6;;;;;;;13.86;82.36816;939.1877;;;;
2019/07/16 03:41:01;;;;;;;8.8;8;;;;;;;13.88;82.75;939.2076;;;;
2019/07/16 03:43:25;;;;;;;8.8;8;;;;;;;13.92;82.41309;939.318;;;;
2019/07/16 03:45:51;;;;;;;8.6;7.7;;;;;;;13.96;82.04199;939.3052;;;;
2019/07/16 03:48:16;;;;;;;9.1;8.2;;;;;;;13.9;81.29297;939.2645;;;;
2019/07/16 03:50:46;;;;;;;9.6;8.3;;;;;;;13.82;80.95605;939.299;;;;
2019/07/16 03:53:10;;;;;;;8.5;7.3;;;;;;;13.68;81.5293;939.3389;;;;
2019/07/16 03:55:37;;;;;;;9.1;8.2;;;;;;;13.73;82.50391;939.3292;;;;
2019/07/16 03:58:02;;;;;;;8.6;7.9;;;;;;;13.68;82.80566;939.3133;;;;
2019/07/16 04:02:32;;;;;;;8.8;7.7;;;;;;;13.76;82.54492;939.2836;;;;
2019/07/16 04:04:59;;;;;;;9.9;7.4;;;;;;;13.89;81.46387;939.2789;;;;
2019/07/16 04:07:27;;;;;;;8.1;7.3;;;;;;;13.94;81.63574;939.29;;;;
2019/07/16 04:09:49;;;;;;;8.2;7.4;;;;;;;13.95;81.23242;939.3148;;;;
2019/07/16 04:12:13;;;;;;;8.4;7.6;;;;;;;13.95;81.76172;939.302;;;;
2019/07/16 04:14:43;;;;;;;11;7;;;;;;;13.88;80.78223;939.3486;;;;
2019/07/16 04:17:03;;;;;;;9.7;7.4;;;;;;;13.9;80.79688;939.3973;;;;
2019/07/16 04:19:28;;;;;;;8.7;7.8;;;;;;;13.9;81.55664;939.3677;;;;
2019/07/16 04:21:53;;;;;;;8.7;7.8;;;;;;;13.97;81.43164;939.3644;;;;
2019/07/16 04:24:20;;;;;;;8.4;7.2;;;;;;;13.88;81.66992;939.3989;;;;
2019/07/16 04:26:44;;;;;;;7.8;7;;;;;;;13.96;81.20117;939.4628;;;;
2019/07/16 04:29:12;;;;;;;8.1;7.3;;;;;;;13.9;81.52148;939.423;;;;
2019/07/16 04:31:36;;;;;;;9.2;7.3;;;;;;;13.92;81.26172;939.4373;;;;
2019/07/16 06:35:33;;;;;;;7.8;7;;;;;;;27.07;42.54395;939.029;;;;
2019/07/16 06:37:58;;;;;;;3.7;2.6;;;;;;;26.29;44.16211;938.9952;;;;
2019/07/16 06:40:27;;;;;;;3.5;2.5;;;;;;;27.12;40.42676;938.9812;;;;
2019/07/16 06:42:53;;;;;;;4.8;2.4;;;;;;;27.84;40.0166;938.9146;;;;
2019/07/16 06:45:19;;;;;;;5.7;2.7;;;;;;;27.79;37.74512;938.8956;;;;
2019/07/16 06:47:43;;;;;;;3.8;2.5;;;;;;;27.2;39.08301;938.9297;;;;
2019/07/16 06:50:08;;;;;;;3.4;2.4;;;;;;;27.4;41.76855;938.9764;;;;
2019/07/16 06:52:33;;;;;;;3.4;2.4;;;;;;;28.54;38.83008;938.9347;;;;
2019/07/16 06:55:01;;;;;;;4.2;2.4;;;;;;;28.31;39.12012;938.8859;;;;
2019/07/16 06:57:28;;;;;;;4.6;2.3;;;;;;;28.01;39.39063;938.9303;;;;
2019/07/16 06:59:52;;;;;;;3.9;2.5;;;;;;;28.45;37.59863;938.8753;;;;
2019/07/16 07:02:20;;;;;;;4.4;2.3;;;;;;;28.55;38.1416;938.8508;;;;
2019/07/16 07:04:45;;;;;;;3.1;2.3;;;;;;;29.59;36.34668;938.8205;;;;
2019/07/16 07:07:10;;;;;;;3.2;2.3;;;;;;;30.14;34.01563;938.8583;;;;
2019/07/16 07:09:38;;;;;;;5.9;2.3;;;;;;;29.64;37.26758;938.8524;;;;
2019/07/16 07:12:04;;;;;;;3.9;2.1;;;;;;;30.38;34.71387;938.795;;;;
2019/07/16 07:14:32;;;;;;;4.1;2.1;;;;;;;30.25;35.55176;938.7822;;;;
2019/07/16 07:16:55;;;;;;;3.2;2.3;;;;;;;29.49;35.99316;938.798;;;;
2019/07/16 07:19:20;;;;;;;2.3;2.1;;;;;;;29.43;35.57031;938.7553;;;;
2019/07/16 07:21:54;;;;;;;4.5;2.2;;;;;;;28.61;39.39551;938.8367;;;;
2019/07/16 07:24:12;;;;;;;4.2;2.2;;;;;;;29.26;40.90527;938.8194;;;;
2019/07/16 07:26:41;;;;;;;4.4;2.5;;;;;;;29.97;38.48828;938.8736;;;;
2019/07/16 07:29:01;;;;;;;4.2;2.2;;;;;;;28.5;42.46582;938.8192;;;;
2019/07/16 07:31:26;;;;;;;4.9;2.8;;;;;;;28.76;40.3252;938.8284;;;;
2019/07/16 07:33:50;;;;;;;4.2;3;;;;;;;28.81;40.36426;938.7644;;;;
2019/07/16 07:36:16;;;;;;;3.9;2.8;;;;;;;28.71;40.41504;938.7941;;;;
2019/07/16 07:38:41;;;;;;;4.7;2.7;;;;;;;30.22;37.95996;938.7214;;;;
2019/07/16 07:41:06;;;;;;;3.8;2.8;;;;;;;30.06;39.2832;938.6849;;;;
2019/07/16 07:43:32;;;;;;;7.2;3;;;;;;;30.31;37.05957;938.6506;;;;
2019/07/16 07:46:03;;;;;;;5.6;2.7;;;;;;;30.16;36.80957;938.5875;;;;
2019/07/16 07:48:30;;;;;;;5.1;2.8;;;;;;;29.76;37.52832;938.6041;;;;
2019/07/16 07:50:53;;;;;;;2.7;2.5;;;;;;;29.08;40.52051;938.614;;;;
2019/07/16 07:53:20;;;;;;;5.1;2.8;;;;;;;29.41;38.60742;938.5492;;;;
2019/07/16 07:55:44;;;;;;;5.1;2.5;;;;;;;28.77;41.76563;938.5911;;;;
2019/07/16 07:58:11;;;;;;;3.5;2.6;;;;;;;29.59;37.41895;938.5328;;;;
2019/07/16 08:00:38;;;;;;;3;2.7;;;;;;;28.39;40.2793;938.5758;;;;
2019/07/16 08:02:59;;;;;;;4.7;2.9;;;;;;;28.87;38.28711;938.6235;;;;
2019/07/16 08:05:25;;;;;;;5.2;2.6;;;;;;;29.1;38.14063;938.5103;;;;
2019/07/16 08:07:51;;;;;;;5.7;2.7;;;;;;;30.9;36.11719;938.5734;;;;
2019/07/16 08:10:14;;;;;;;4.7;2.6;;;;;;;30.04;36.12012;938.543;;;;
2019/07/16 08:12:40;;;;;;;5.4;2.8;;;;;;;31.18;32.2998;938.5633;;;;
2019/07/16 10:15:42;;;;;;;5.2;2.7;;;;;;;28.14;38.49902;938.0392;;;;
2019/07/16 10:18:07;;;;;;;4.2;2.6;;;;;;;28.27;41.57617;938.0366;;;;
2019/07/16 10:20:42;;;;;;;8.2;2.9;;;;;;;28.39;39.50781;938.0987;;;;
2019/07/16 10:23:08;;;;;;;3.9;2.8;;;;;;;27.99;41.1709;938.0683;;;;
2019/07/16 10:25:32;;;;;;;3.9;2.8;;;;;;;28.09;40.01465;938.0573;;;;
2019/07/16 10:28:00;;;;;;;5.5;2.8;;;;;;;27.63;39.90332;938.0888;;;;
2019/07/16 10:30:29;;;;;;;5.7;3;;;;;;;27.21;42.73535;938.0689;;;;
2019/07/16 10:32:51;;;;;;;5.8;3;;;;;;;27.68;42.85059;938.0764;;;;
2019/07/16 10:35:16;;;;;;;3.6;2.5;;;;;;;27.86;40.38672;938.0242;;;;
2019/07/16 10:37:41;;;;;;;6.6;2.6;;;;;;;27.52;40.60547;938.0275;;;;
2019/07/16 10:40:12;;;;;;;3.1;2.7;;;;;;;27.54;40.60645;938.1075;;;;
2019/07/16 10:42:43;;;;;;;6.2;2.9;;;;;;;27.92;41.24805;938.1281;;;;
2019/07/16 10:45:05;;;;;;;4.6;2.9;;;;;;;27.87;41.08789;938.0937;;;;
2019/07/16 10:47:28;;;;;;;4.3;2.7;;;;;;;27.85;41.41895;938.0569;;;;
2019/07/16 10:49:57;;;;;;;2.9;2.6;;;;;;;27.93;39.97754;938.0352;;;;
2019/07/16 10:52:23;;;;;;;3.5;2.8;;;;;;;27.61;40.37598;938.0871;;;;
2019/07/16 10:54:51;;;;;;;5;3.1;;;;;;;27.29;42.06738;938.0737;;;;
2019/07/16 10:57:17;;;;;;;4.9;2.8;;;;;;;27.53;43.86914;938.0826;;;;
2019/07/16 10:59:42;;;;;;;5.3;2.9;;;;;;;27.35;41.59863;938.0809;;;;
2019/07/16 11:02:07;;;;;;;5.2;3.3;;;;;;;27.55;42.7793;938.0146;;;;
2019/07/16 11:04:33;;;;;;;4.4;3.1;;;;;;;27.57;43.68359;938.0502;;;;
2019/07/16 11:06:58;;;;;;;4.1;2.8;;;;;;;27.78;42.97949;937.9553;;;;
2019/07/16 11:09:28;;;;;;;6;2.8;;;;;;;27.74;43.37988;938.0009;;;;
2019/07/16 11:11:53;;;;;;;3.2;2.7;;;;;;;28.01;43.41699;937.9387;;;;
2019/07/16 11:14:26;;;;;;;4.5;2.7;;;;;;;28.14;40.17383;937.9135;;;;
2019/07/16 11:16:44;;;;;;;3;2.7;;;;;;;27.89;43.91602;937.9628;;;;
2019/07/16 11:19:11;;;;;;;3.6;2.7;;;;;;;28.22;41.80859;937.9439;;;;
2019/07/16 11:21:34;;;;;;;4.6;3;;;;;;;28.59;41.49902;937.9476;;;;
2019/07/16 11:24:01;;;;;;;7.2;3;;;;;;;28.75;40.09863;937.9774;;;;
2019/07/16 11:26:28;;;;;;;5.1;3.1;;;;;;;28.38;41.20605;937.9439;;;;
2019/07/16 11:28:52;;;;;;;6.4;3.1;;;;;;;27.79;41.25879;937.9449;;;;
2019/07/16 11:31:17;;;;;;;6.7;3;;;;;;;27.07;41.9043;938.0611;;;;
2019/07/16 11:33:43;;;;;;;6;2.9;;;;;;;27.33;43.99219;937.993;;;;
2019/07/16 11:36:14;;;;;;;4.1;3;;;;;;;27.45;40.90723;937.9745;;;;
2019/07/16 11:38:35;;;;;;;3.5;3;;;;;;;27.23;41.86035;937.97;;;;
2019/07/16 11:40:59;;;;;;;4.9;3.1;;;;;;;27.38;42.1582;937.9202;;;;
2019/07/16 11:43:30;;;;;;;5.6;3;;;;;;;27.42;43.49121;937.9256;;;;
2019/07/16 11:45:51;;;;;;;4.1;2.8;;;;;;;27.32;43.38672;937.9039;;;;
2019/07/16 11:48:16;;;;;;;7.2;2.8;;;;;;;27.6;42.77246;937.8619;;;;
2019/07/16 11:50:42;;;;;;;7.1;3.6;;;;;;;27.74;41.76563;937.8569;;;;
2019/07/16 11:53:10;;;;;;;5.7;3.5;;;;;;;27.13;42.31348;937.8994;;;;
2019/07/16 11:55:32;;;;;;;4.7;2.9;;;;;;;26.71;44.73633;937.8527;;;;
2019/07/16 11:57:57;;;;;;;2.9;2.6;;;;;;;26.94;45.1748;937.829;;;;
2019/07/16 12:00:23;;;;;;;4.1;2.8;;;;;;;26.8;43.99902;937.8692;;;;
2019/07/16 12:02:51;;;;;;;4.1;2.8;;;;;;;26.63;42.58496;937.8135;;;;
2019/07/16 12:05:12;;;;;;;3.6;2.8;;;;;;;26.46;43.69434;937.8483;;;;
2019/07/16 12:07:38;;;;;;;4.1;2.5;;;;;;;27.1;41.2666;937.8036;;;;
2019/07/16 12:10:04;;;;;;;4.5;2.6;;;;;;;27.6;43.21191;937.8448;;;;
2019/07/16 12:12:30;;;;;;;4.2;2.6;;;;;;;27.83;39.33887;937.7503;;;;
2019/07/16 12:14:54;;;;;;;6.2;2.6;;;;;;;27.99;38.87891;937.7408;;;;
2019/07/16 12:17:18;;;;;;;3.9;2.6;;;;;;;27.98;39.7207;937.8481;;;;
2019/07/16 12:19:44;;;;;;;2.8;2.4;;;;;;;28.23;40.51563;937.7894;;;;
2019/07/16 12:22:17;;;;;;;4.2;2.5;;;;;;;28.33;40.33398;937.7642;;;;
2019/07/16 12:24:36;;;;;;;3.9;2.5;;;;;;;27.96;39.83789;937.7458;;;;
2019/07/16 12:26:59;;;;;;;2.7;2.2;;;;;;;27.85;40.18457;937.778;;;;
2019/07/16 12:29:29;;;;;;;3.2;2.5;;;;;;;27.48;40.31641;937.6202;;;;
2019/07/16 12:31:56;;;;;;;3.6;2.6;;;;;;;27.62;40.55469;937.6145;;;;
2019/07/16 12:34:17;;;;;;;3.2;2.5;;;;;;;27.9;39.00098;937.6172;;;;
2019/07/16 12:36:42;;;;;;;3.4;2.4;;;;;;;28.02;40.24609;937.6492;;;;
2019/07/16 12:39:10;;;;;;;7.7;2.4;;;;;;;28.15;37.98828;937.6711;;;;
2019/07/16 12:41:35;;;;;;;4.1;2.5;;;;;;;28.05;41.24707;937.6404;;;;
2019/07/16 12:43:59;;;;;;;5.4;2.3;;;;;;;27.78;40.35547;937.6188;;;;
2019/07/16 12:46:23;;;;;;;3;2.7;;;;;;;27.87;38.36914;937.596;;;;
2019/07/16 12:48:47;;;;;;;3.7;2.6;;;;;;;27.76;39.10742;937.5611;;;;
2019/07/16 12:51:14;;;;;;;4.5;2.6;;;;;;;27.67;40.97461;937.5461;;;;
2019/07/16 12:53:40;;;;;;;4.3;2.2;;;;;;;27.59;40.5166;937.5188;;;;
2019/07/16 12:56:14;;;;;;;4;2.7;;;;;;;27.75;39.68848;937.5231;;;;
2019/07/16 12:58:31;;;;;;;3.4;2.7;;;;;;;27.92;40.38086;937.4863;;;;
2019/07/16 13:00:59;;;;;;;4.6;2.5;;;;;;;27.92;38.54004;937.5779;;;;
2019/07/16 13:03:23;;;;;;;3.4;2.5;;;;;;;27.96;38.3877;937.5676;;;;
2019/07/16 13:05:54;;;;;;;3.6;2.6;;;;;;;27.62;38.59766;937.5792;;;;
2019/07/16 13:08:17;;;;;;;4.1;2.5;;;;;;;27.74;39.74707;937.5204;;;;
2019/07/16 13:10:40;;;;;;;2.6;2.3;;;;;;;27.93;39.22852;937.5295;;;;
2019/07/16 13:13:03;;;;;;;4.6;2.6;;;;;;;27.93;40.53613;937.5859;;;;
2019/07/16 13:15:31;;;;;;;5.9;2.9;;;;;;;27.89;37.09961;937.5005;;;;
2019/07/16 13:17:54;;;;;;;2.9;2.6;;;;;;;27.86;39.85156;937.4755;;;;
2019/07/16 13:20:22;;;;;;;3.2;2.4;;;;;;;27.98;40.00586;937.4369;;;;
2019/07/16 13:22:49;;;;;;;2.8;2.4;;;;;;;27.84;39.3877;937.495;;;;
2019/07/16 13:25:14;;;;;;;5;2.7;;;;;;;27.83;39.14844;937.4492;;;;
2019/07/16 13:27:38;;;;;;;3.8;2.5;;;;;;;27.79;40.26172;937.425;;;;
2019/07/16 13:30:03;;;;;;;6.1;2.9;;;;;;;27.7;40.68066;937.4363;;;;
2019/07/16 13:32:30;;;;;;;2.9;2.6;;;;;;;27.26;38.28125;937.4325;;;;
2019/07/16 13:34:55;;;;;;;3.3;2.5;;;;;;;27.08;39.51074;937.4934;;;;
2019/07/16 13:37:22;;;;;;;4;2.6;;;;;;;27.16;40.57324;937.5452;;;;
2019/07/16 13:39:52;;;;;;;3.2;2.5;;;;;;;27.34;39.58105;937.4814;;;;
2019/07/16 13:42:17;;;;;;;3.1;2.4;;;;;;;27.26;38.57813;937.3892;;;;
2019/07/16 13:44:37;;;;;;;7.4;2.7;;;;;;;27.17;40.11133;937.4222;;;;
2019/07/16 13:47:03;;;;;;;9.5;4.4;;;;;;;27.32;40.2666;937.3714;;;;
2019/07/16 13:49:29;;;;;;;12.5;4.8;;;;;;;27.21;40.13867;937.4631;;;;
2019/07/16 13:51:53;;;;;;;5.9;2.5;;;;;;;27.25;39.0752;937.4219;;;;
2019/07/16 13:54:17;;;;;;;3.6;2.2;;;;;;;27.38;36.70215;937.3914;;;;
2019/07/16 13:56:43;;;;;;;2.4;2.2;;;;;;;27.11;38.88477;937.274;;;;
2019/07/16 13:59:11;;;;;;;5.5;2.6;;;;;;;27.09;40.5791;937.4177;;;;
2019/07/16 14:01:35;;;;;;;3.3;2.4;;;;;;;26.83;38.03125;937.3234;;;;
2019/07/16 14:04:00;;;;;;;4.7;2.5;;;;;;;26.69;40.0332;937.3334;;;;
2019/07/16 14:06:24;;;;;;;3.8;2.4;;;;;;;26.84;38.3877;937.3875;;;;
2019/07/16 14:08:54;;;;;;;4.4;2.5;;;;;;;26.76;39.4707;937.3655;;;;
2019/07/16 14:11:18;;;;;;;8;3.9;;;;;;;26.41;39.13184;937.4032;;;;
2019/07/16 14:13:50;;;;;;;6.1;2.9;;;;;;;26.19;39.4209;937.3766;;;;
2019/07/16 14:16:14;;;;;;;8.2;4;;;;;;;26.32;41.20703;937.3875;;;;
2019/07/16 14:18:35;;;;;;;6.8;3.7;;;;;;;26.5;41.60254;937.3247;;;;
2019/07/16 14:21:01;;;;;;;7.1;3.8;;;;;;;26.52;41.68652;937.3864;;;;
2019/07/16 14:23:26;;;;;;;7.5;3.2;;;;;;;26.47;40.08398;937.3688;;;;
2019/07/16 14:25:53;;;;;;;5.1;2.8;;;;;;;26.55;41.22852;937.3422;;;;
2019/07/16 14:28:16;;;;;;;6.3;3.8;;;;;;;26.82;40.95605;937.3124;;;;
2019/07/16 14:30:51;;;;;;;7;3;;;;;;;26.94;38.82324;937.3059;;;;
2019/07/16 14:33:09;;;;;;;5.8;2.6;;;;;;;26.82;39.80664;937.3164;;;;
2019/07/16 14:35:31;;;;;;;6.1;3;;;;;;;26.79;41.34473;937.2913;;;;
2019/07/16 14:37:58;;;;;;;7.1;3.4;;;;;;;26.74;40.07227;937.2947;;;;
2019/07/16 14:40:22;;;;;;;5.3;3;;;;;;;26.81;39.47461;937.3097;;;;
2019/07/16 14:42:52;;;;;;;6.8;2.9;;;;;;;26.74;38.84082;937.3078;;;;
2019/07/16 14:45:13;;;;;;;3.5;2.6;;;;;;;26.54;40.55273;937.2742;;;;
2019/07/16 14:47:40;;;;;;;5.8;2.9;;;;;;;26.71;39.18164;937.2735;;;;
2019/07/16 14:50:08;;;;;;;5.4;2.9;;;;;;;26.78;41.03613;937.2623;;;;
2019/07/16 14:52:30;;;;;;;7.4;2.7;;;;;;;26.69;39.81934;937.2589;;;;
2019/07/16 14:54:55;;;;;;;5;2.6;;;;;;;26.56;38.88379;937.2586;;;;
2019/07/16 14:57:20;;;;;;;5.5;2.5;;;;;;;26.61;40.02539;937.3063;;;;
2019/07/16 14:59:48;;;;;;;3.7;2.6;;;;;;;26.74;38.30762;937.2294;;;;
2019/07/16 15:02:11;;;;;;;6.3;2.8;;;;;;;26.82;38.37402;937.2209;;;;
2019/07/16 15:04:46;;;;;;;3.5;2.5;;;;;;;26.36;39.99121;937.255;;;;
2019/07/16 15:07:07;;;;;;;7.6;2.7;;;;;;;26.19;40.08398;937.2852;;;;
2019/07/16 15:09:35;;;;;;;3.7;2.7;;;;;;;26.1;40.84375;937.1783;;;;
2019/07/16 15:11:58;;;;;;;7.2;2.7;;;;;;;25.94;42.80469;937.1905;;;;
2019/07/16 15:14:26;;;;;;;4.7;2.4;;;;;;;26;41.31934;937.25;;;;
2019/07/16 15:16:52;;;;;;;2.7;2.5;;;;;;;25.66;42.28027;937.1392;;;;
2019/07/16 15:19:16;;;;;;;8.6;2.9;;;;;;;25.59;41.56445;937.1707;;;;
2019/07/16 15:21:44;;;;;;;3.4;2.5;;;;;;;25.62;41.80371;937.1619;;;;
2019/07/16 15:24:06;;;;;;;5.6;2.5;;;;;;;25.62;42.43066;937.192;;;;
2019/07/16 15:26:44;;;;;;;9;3;;;;;;;25.65;42.31543;937.1483;;;;
2019/07/16 15:29:33;;;;;;;3.9;2.7;;;;;;;25.6;41.80176;937.2177;;;;
2019/07/16 15:32:01;;;;;;;6.3;2.8;;;;;;;25.62;41.78027;937.188;;;;
2019/07/16 15:34:29;;;;;;;4.3;2.7;;;;;;;25.44;42.05957;937.1464;;;;
2019/07/16 15:36:54;;;;;;;3.4;2.6;;;;;;;25.48;42.98535;937.1443;;;;
2019/07/16 15:45:15;;;;;;;8;3.6;;;;;;;25.84;42.19141;937.2714;;;;
2019/07/16 15:47:44;;;;;;;7.4;3.1;;;;;;;25.94;40.93652;937.2558;;;;
2019/07/16 15:50:27;;;;;;;3.8;2.5;;;;;;;26.07;40.87695;937.3438;;;;
2019/07/16 15:52:56;;;;;;;5.4;2.7;;;;;;;25.73;39.9707;937.3102;;;;
2019/07/16 15:55:19;;;;;;;7.1;2.5;;;;;;;25.84;40.26465;937.2493;;;;
2019/07/16 15:57:47;;;;;;;4.5;2.5;;;;;;;25.94;41.23145;937.278;;;;
2019/07/16 16:00:12;;;;;;;5.6;2.5;;;;;;;26.02;40.83691;937.2305;;;;
2019/07/16 16:02:46;;;;;;;4.8;2.5;;;;;;;25.95;40.43945;937.3408;;;;
2019/07/16 16:05:18;;;;;;;4.9;2.8;;;;;;;25.8;39.26855;937.2601;;;;
2019/07/16 16:07:40;;;;;;;3.7;2.7;;;;;;;25.77;40.22363;937.2729;;;;
2019/07/16 16:10:06;;;;;;;3;2.5;;;;;;;25.75;40.04395;937.2935;;;;
2019/07/16 16:12:36;;;;;;;5;2.3;;;;;;;25.47;39.53516;937.2369;;;;
2019/07/16 16:15:04;;;;;;;2.7;2.4;;;;;;;25.44;40.3457;937.3251;;;;
2019/07/16 16:17:28;;;;;;;4.1;2.7;;;;;;;25.44;40.00391;937.2417;;;;
2019/07/16 16:19:54;;;;;;;4.4;2.6;;;;;;;25.33;40.67969;937.2985;;;;
2019/07/16 16:22:28;;;;;;;4.8;2.6;;;;;;;25.39;40.56641;937.2458;;;;
2019/07/16 16:24:50;;;;;;;3.9;2.7;;;;;;;25.36;41.66211;937.2285;;;;
2019/07/16 16:27:23;;;;;;;5.5;2.5;;;;;;;25.44;42.15332;937.2729;;;;
2019/07/16 16:29:47;;;;;;;4.7;2.2;;;;;;;25.28;40.92285;937.2403;;;;
2019/07/16 16:32:16;;;;;;;3.9;2.5;;;;;;;25.27;41.90234;937.1984;;;;
2019/07/16 16:34:42;;;;;;;3.7;2.4;;;;;;;25.16;43.07227;937.259;;;;
2019/07/16 16:37:10;;;;;;;4.3;2.6;;;;;;;25.07;41.65918;937.2342;;;;
2019/07/16 16:39:42;;;;;;;3.8;2.5;;;;;;;25.09;40.40918;937.2097;;;;
2019/07/16 16:42:07;;;;;;;4.4;2.6;;;;;;;24.86;40.25879;937.2133;;;;
2019/07/16 16:44:42;;;;;;;3.6;2.8;;;;;;;25.1;40.26855;937.1824;;;;
2019/07/16 16:47:13;;;;;;;3.8;2.5;;;;;;;25.14;40.73242;937.2366;;;;
2019/07/16 16:49:40;;;;;;;3;2.6;;;;;;;25.23;41.01172;937.2274;;;;
2019/07/16 16:52:07;;;;;;;3.6;2.5;;;;;;;25.13;42.41895;937.2076;;;;
2019/07/16 16:54:39;;;;;;;3.1;2.8;;;;;;;25.06;40.63086;937.2745;;;;
2019/07/16 16:57:05;;;;;;;4;2.6;;;;;;;25.07;41.35156;937.2511;;;;
2019/07/16 16:59:30;;;;;;;3.1;2.8;;;;;;;24.87;42.97363;937.3084;;;;
2019/07/16 17:02:01;;;;;;;4.3;2.6;;;;;;;24.97;41.93164;937.2932;;;;
2019/07/16 17:04:21;;;;;;;3.6;2.6;;;;;;;24.97;40.75195;937.267;;;;
2019/07/16 17:07:03;;;;;;;4.9;2.8;;;;;;;24.77;41.97266;937.3104;;;;
2019/07/16 17:09:31;;;;;;;6.3;3.1;;;;;;;24.78;42.64551;937.3484;;;;
2019/07/16 17:11:54;;;;;;;8.3;3;;;;;;;24.71;43.73535;937.2847;;;;
2019/07/16 17:14:22;;;;;;;6.8;3;;;;;;;24.52;44.08301;937.3475;;;;
2019/07/16 17:16:51;;;;;;;7.5;2.7;;;;;;;24.44;45.52441;937.3303;;;;
2019/07/16 17:19:22;;;;;;;4.8;2.9;;;;;;;24.46;44.41797;937.3098;;;;
2019/07/16 17:21:54;;;;;;;4.2;2.9;;;;;;;24.56;43.20215;937.3077;;;;
2019/07/16 17:24:25;;;;;;;5;2.8;;;;;;;24.5;42.53613;937.3692;;;;
2019/07/16 17:26:51;;;;;;;7.3;2.8;;;;;;;24.48;43.60645;937.3636;;;;
2019/07/16 17:29:22;;;;;;;3.3;2.5;;;;;;;24.49;44.20996;937.3873;;;;
2019/07/16 17:36:20;;;;;;;4.8;2.7;;;;;;;24.16;45.38965;937.3711;;;;
2019/07/16 17:38:47;;;;;;;3.5;2.7;;;;;;;24.18;45.41504;937.2776;;;;
2019/07/16 17:41:11;;;;;;;5.3;3.2;;;;;;;24.08;45.25195;937.3148;;;;
2019/07/16 17:43:49;;;;;;;4.6;3.6;;;;;;;24.14;44.36328;937.3915;;;;
2019/07/16 17:46:13;;;;;;;6;4.4;;;;;;;24.17;45.02539;937.3739;;;;
2019/07/16 17:48:40;;;;;;;9.4;4.2;;;;;;;24.17;45.33203;937.383;;;;
2019/07/16 17:51:04;;;;;;;6.4;3.8;;;;;;;24.13;46.22266;937.3848;;;;
2019/07/16 17:59:20;;;;;;;3.8;3.2;;;;;;;23.51;47.14648;937.5333;;;;
2019/07/16 18:01:57;;;;;;;5.7;3.1;;;;;;;23.48;47.20215;937.4326;;;;
2019/07/16 18:04:28;;;;;;;5;3.3;;;;;;;23.42;48.41797;937.5204;;;;
2019/07/16 18:07:00;;;;;;;8;3.4;;;;;;;23.41;48.89844;937.4656;;;;
2019/07/16 18:09:24;;;;;;;6.1;3.3;;;;;;;23.36;48.83594;937.5023;;;;
2019/07/16 18:11:54;;;;;;;5.7;3.2;;;;;;;23.23;49.4082;937.5825;;;;
2019/07/16 18:14:21;;;;;;;5.3;3.4;;;;;;;23.11;50.71094;937.4001;;;;
2019/07/16 18:16:47;;;;;;;8.3;3.8;;;;;;;22.99;52.4834;937.4697;;;;
2019/07/16 18:19:17;;;;;;;27.1;4.6;;;;;;;22.79;53.51563;937.572;;;;
2019/07/16 18:21:46;;;;;;;8.9;3.8;;;;;;;22.44;53.3457;937.5874;;;;
2019/07/16 18:24:08;;;;;;;4.8;3.4;;;;;;;22.46;52.88965;937.5931;;;;
2019/07/16 18:26:34;;;;;;;7.6;3.3;;;;;;;22.48;54.33496;937.526;;;;
2019/07/16 18:29:08;;;;;;;5.9;3.6;;;;;;;22.45;52.77148;937.5683;;;;
2019/07/16 18:31:30;;;;;;;6.8;3.3;;;;;;;22.48;53.93652;937.5469;;;;
2019/07/16 18:33:57;;;;;;;4.7;3.5;;;;;;;22.16;54.05078;937.5313;;;;
2019/07/16 18:36:25;;;;;;;5.5;3.8;;;;;;;22.15;54.21191;937.5934;;;;
2019/07/16 18:38:54;;;;;;;5.4;4;;;;;;;22.05;55.40723;937.6046;;;;
2019/07/16 18:41:19;;;;;;;5.4;3.9;;;;;;;21.89;55.72754;937.6526;;;;
2019/07/16 18:43:44;;;;;;;4.3;3.6;;;;;;;21.75;55.11133;937.577;;;;
2019/07/16 18:46:18;;;;;;;5.2;3.9;;;;;;;21.7;57.83594;937.6393;;;;
2019/07/16 18:48:45;;;;;;;5.3;3.9;;;;;;;21.62;56.25586;937.6717;;;;
2019/07/16 18:51:19;;;;;;;8.4;3.7;;;;;;;21.55;56.37695;937.6683;;;;